sensor_id;sensor_type;location;lat;lon;timestamp;P1;durP1;ratioP1;P2;durP2;ratioP2
17636;SDS011;8937;51.236;6.794;2022-07-22T00:06:34;3.67;;;2.80;;
17636;SDS011;8937;51.236;6.794;2022-07-22T00:14:57;6.10;;;3.23;;
17636;SDS011;8937;51.236;6.794;2022-07-22T00:23:18;3.27;;;2.43;;
17636;SDS011;8937;51.236;6.794;2022-07-22T00:31:41;4.80;;;3.60;;
17636;SDS011;8937;51.236;6.794;2022-07-22T00:40:03;3.03;;;2.80;;
17636;SDS011;8937;51.236;6.794;2022-07-22T00:48:26;3.27;;;2.97;;
17636;SDS011;8937;51.236;6.794;2022-07-22T00:56:47;4.10;;;2.97;;
17636;SDS011;8937;51.236;6.794;2022-07-22T01:05:10;3.13;;;2.93;;
17636;SDS011;8937;51.236;6.794;2022-07-22T01:13:31;5.27;;;3.20;;
17636;SDS011;8937;51.236;6.794;2022-07-22T01:21:54;4.00;;;3.27;;
17636;SDS011;8937;51.236;6.794;2022-07-22T01:30:16;3.93;;;3.20;;
17636;SDS011;8937;51.236;6.794;2022-07-22T01:38:39;3.40;;;3.10;;
17636;SDS011;8937;51.236;6.794;2022-07-22T01:47:00;4.17;;;3.30;;
17636;SDS011;8937;51.236;6.794;2022-07-22T01:55:23;4.00;;;3.40;;
17636;SDS011;8937;51.236;6.794;2022-07-22T02:03:45;4.97;;;4.17;;
17636;SDS011;8937;51.236;6.794;2022-07-22T02:12:08;8.00;;;4.63;;
17636;SDS011;8937;51.236;6.794;2022-07-22T02:20:29;4.27;;;3.87;;
17636;SDS011;8937;51.236;6.794;2022-07-22T02:28:52;4.23;;;3.83;;
17636;SDS011;8937;51.236;6.794;2022-07-22T02:37:15;3.53;;;3.23;;
17636;SDS011;8937;51.236;6.794;2022-07-22T02:45:38;3.90;;;3.50;;
17636;SDS011;8937;51.236;6.794;2022-07-22T02:53:59;3.37;;;3.07;;
17636;SDS011;8937;51.236;6.794;2022-07-22T03:02:22;3.57;;;3.23;;
17636;SDS011;8937;51.236;6.794;2022-07-22T03:10:44;3.80;;;3.50;;
17636;SDS011;8937;51.236;6.794;2022-07-22T03:19:06;5.67;;;4.37;;
17636;SDS011;8937;51.236;6.794;2022-07-22T03:27:28;3.90;;;3.50;;
17636;SDS011;8937;51.236;6.794;2022-07-22T03:35:51;5.63;;;3.87;;
17636;SDS011;8937;51.236;6.794;2022-07-22T03:44:12;4.30;;;3.90;;
17636;SDS011;8937;51.236;6.794;2022-07-22T03:52:35;7.77;;;4.13;;
17636;SDS011;8937;51.236;6.794;2022-07-22T04:00:57;3.90;;;3.60;;
17636;SDS011;8937;51.236;6.794;2022-07-22T04:09:20;6.50;;;4.33;;
17636;SDS011;8937;51.236;6.794;2022-07-22T04:17:41;7.50;;;4.53;;
17636;SDS011;8937;51.236;6.794;2022-07-22T04:26:04;5.07;;;3.47;;
17636;SDS011;8937;51.236;6.794;2022-07-22T04:34:25;4.30;;;3.13;;
17636;SDS011;8937;51.236;6.794;2022-07-22T04:42:48;6.40;;;3.17;;
17636;SDS011;8937;51.236;6.794;2022-07-22T04:51:10;3.73;;;2.40;;
17636;SDS011;8937;51.236;6.794;2022-07-22T04:59:33;2.60;;;2.33;;
17636;SDS011;8937;51.236;6.794;2022-07-22T05:07:54;3.03;;;2.43;;
17636;SDS011;8937;51.236;6.794;2022-07-22T05:16:17;4.37;;;2.30;;
17636;SDS011;8937;51.236;6.794;2022-07-22T05:24:38;4.30;;;3.00;;
17636;SDS011;8937;51.236;6.794;2022-07-22T05:33:01;2.73;;;2.23;;
17636;SDS011;8937;51.236;6.794;2022-07-22T05:41:22;3.00;;;2.20;;
17636;SDS011;8937;51.236;6.794;2022-07-22T05:49:45;5.70;;;2.10;;
17636;SDS011;8937;51.236;6.794;2022-07-22T05:58:06;2.67;;;1.60;;
17636;SDS011;8937;51.236;6.794;2022-07-22T06:06:29;2.33;;;1.70;;
17636;SDS011;8937;51.236;6.794;2022-07-22T06:14:51;3.60;;;2.53;;
17636;SDS011;8937;51.236;6.794;2022-07-22T06:23:14;2.60;;;2.40;;
17636;SDS011;8937;51.236;6.794;2022-07-22T06:31:35;2.53;;;2.00;;
17636;SDS011;8937;51.236;6.794;2022-07-22T06:39:58;3.63;;;2.70;;
17636;SDS011;8937;51.236;6.794;2022-07-22T06:48:20;4.80;;;1.90;;
17636;SDS011;8937;51.236;6.794;2022-07-22T06:56:43;2.53;;;1.97;;
17636;SDS011;8937;51.236;6.794;2022-07-22T07:05:04;1.37;;;1.37;;
17636;SDS011;8937;51.236;6.794;2022-07-22T07:13:27;3.30;;;2.40;;
17636;SDS011;8937;51.236;6.794;2022-07-22T07:21:49;2.27;;;2.10;;
17636;SDS011;8937;51.236;6.794;2022-07-22T07:30:12;1.98;;;1.60;;
17636;SDS011;8937;51.236;6.794;2022-07-22T07:38:33;9.53;;;2.67;;
17636;SDS011;8937;51.236;6.794;2022-07-22T07:46:57;6.05;;;2.08;;
17636;SDS011;8937;51.236;6.794;2022-07-22T07:55:18;2.45;;;2.15;;
17636;SDS011;8937;51.236;6.794;2022-07-22T08:03:41;3.33;;;2.58;;
17636;SDS011;8937;51.236;6.794;2022-07-22T08:12:03;3.45;;;2.53;;
17636;SDS011;8937;51.236;6.794;2022-07-22T08:20:26;6.47;;;3.70;;
17636;SDS011;8937;51.236;6.794;2022-07-22T08:28:47;3.47;;;3.17;;
17636;SDS011;8937;51.236;6.794;2022-07-22T08:37:10;3.80;;;3.40;;
17636;SDS011;8937;51.236;6.794;2022-07-22T08:45:32;3.90;;;3.28;;
17636;SDS011;8937;51.236;6.794;2022-07-22T08:53:55;3.67;;;3.03;;
17636;SDS011;8937;51.236;6.794;2022-07-22T09:02:17;8.30;;;5.68;;
17636;SDS011;8937;51.236;6.794;2022-07-22T09:10:41;5.88;;;3.95;;
17636;SDS011;8937;51.236;6.794;2022-07-22T09:19:02;6.65;;;4.32;;
17636;SDS011;8937;51.236;6.794;2022-07-22T09:27:26;7.85;;;4.40;;
17636;SDS011;8937;51.236;6.794;2022-07-22T09:35:49;7.07;;;4.97;;
17636;SDS011;8937;51.236;6.794;2022-07-22T09:44:21;6.95;;;5.05;;
17636;SDS011;8937;51.236;6.794;2022-07-22T09:52:43;8.63;;;5.28;;
17636;SDS011;8937;51.236;6.794;2022-07-22T10:01:06;11.95;;;5.13;;
17636;SDS011;8937;51.236;6.794;2022-07-22T10:09:28;9.48;;;5.00;;
17636;SDS011;8937;51.236;6.794;2022-07-22T10:17:52;8.55;;;5.63;;
17636;SDS011;8937;51.236;6.794;2022-07-22T10:26:15;10.00;;;6.05;;
17636;SDS011;8937;51.236;6.794;2022-07-22T10:34:37;11.88;;;7.32;;
17636;SDS011;8937;51.236;6.794;2022-07-22T10:43:05;13.70;;;7.70;;
17636;SDS011;8937;51.236;6.794;2022-07-22T10:51:29;10.93;;;7.35;;
17636;SDS011;8937;51.236;6.794;2022-07-22T10:59:53;11.90;;;7.00;;
17636;SDS011;8937;51.236;6.794;2022-07-22T11:08:16;10.43;;;6.97;;
17636;SDS011;8937;51.236;6.794;2022-07-22T11:16:38;10.50;;;7.75;;
17636;SDS011;8937;51.236;6.794;2022-07-22T11:25:03;8.55;;;6.60;;
17636;SDS011;8937;51.236;6.794;2022-07-22T11:33:24;11.95;;;7.35;;
17636;SDS011;8937;51.236;6.794;2022-07-22T11:41:47;8.57;;;6.88;;
17636;SDS011;8937;51.236;6.794;2022-07-22T11:50:09;9.68;;;6.93;;
17636;SDS011;8937;51.236;6.794;2022-07-22T11:58:38;11.20;;;7.35;;
17636;SDS011;8937;51.236;6.794;2022-07-22T12:07:00;9.77;;;7.38;;
17636;SDS011;8937;51.236;6.794;2022-07-22T12:15:23;8.68;;;6.88;;
17636;SDS011;8937;51.236;6.794;2022-07-22T12:23:49;9.98;;;7.47;;
17636;SDS011;8937;51.236;6.794;2022-07-22T12:32:14;8.80;;;6.72;;
17636;SDS011;8937;51.236;6.794;2022-07-22T12:40:37;8.52;;;6.38;;
17636;SDS011;8937;51.236;6.794;2022-07-22T12:49:03;9.68;;;6.00;;
17636;SDS011;8937;51.236;6.794;2022-07-22T12:57:25;7.97;;;6.55;;
17636;SDS011;8937;51.236;6.794;2022-07-22T13:05:48;6.07;;;5.47;;
17636;SDS011;8937;51.236;6.794;2022-07-22T13:14:11;7.00;;;6.05;;
17636;SDS011;8937;51.236;6.794;2022-07-22T13:22:36;9.00;;;6.93;;
17636;SDS011;8937;51.236;6.794;2022-07-22T13:30:57;9.95;;;5.97;;
17636;SDS011;8937;51.236;6.794;2022-07-22T13:39:20;7.60;;;6.57;;
17636;SDS011;8937;51.236;6.794;2022-07-22T13:47:42;9.63;;;8.25;;
17636;SDS011;8937;51.236;6.794;2022-07-22T13:56:06;11.75;;;7.97;;
17636;SDS011;8937;51.236;6.794;2022-07-22T14:04:29;10.65;;;8.20;;
17636;SDS011;8937;51.236;6.794;2022-07-22T14:12:55;10.57;;;8.13;;
17636;SDS011;8937;51.236;6.794;2022-07-22T14:21:17;11.70;;;7.18;;
17636;SDS011;8937;51.236;6.794;2022-07-22T14:29:40;9.43;;;6.75;;
17636;SDS011;8937;51.236;6.794;2022-07-22T14:38:01;7.65;;;5.88;;
17636;SDS011;8937;51.236;6.794;2022-07-22T14:46:24;7.03;;;6.35;;
17636;SDS011;8937;51.236;6.794;2022-07-22T14:54:45;7.43;;;6.57;;
17636;SDS011;8937;51.236;6.794;2022-07-22T15:03:08;6.75;;;6.00;;
17636;SDS011;8937;51.236;6.794;2022-07-22T15:11:30;6.85;;;5.65;;
17636;SDS011;8937;51.236;6.794;2022-07-22T15:19:53;7.55;;;5.97;;
17636;SDS011;8937;51.236;6.794;2022-07-22T15:28:14;6.57;;;4.82;;
17636;SDS011;8937;51.236;6.794;2022-07-22T15:36:37;5.82;;;4.93;;
17636;SDS011;8937;51.236;6.794;2022-07-22T15:44:59;4.55;;;4.15;;
17636;SDS011;8937;51.236;6.794;2022-07-22T15:53:21;4.25;;;3.70;;
17636;SDS011;8937;51.236;6.794;2022-07-22T16:01:43;4.47;;;4.07;;
17636;SDS011;8937;51.236;6.794;2022-07-22T16:10:07;4.35;;;3.95;;
17636;SDS011;8937;51.236;6.794;2022-07-22T16:18:28;6.40;;;4.13;;
17636;SDS011;8937;51.236;6.794;2022-07-22T16:26:51;4.70;;;4.30;;
17636;SDS011;8937;51.236;6.794;2022-07-22T16:35:13;5.82;;;4.57;;
17636;SDS011;8937;51.236;6.794;2022-07-22T16:43:36;6.30;;;4.93;;
17636;SDS011;8937;51.236;6.794;2022-07-22T16:51:58;7.70;;;4.80;;
17636;SDS011;8937;51.236;6.794;2022-07-22T17:00:21;4.82;;;4.40;;
17636;SDS011;8937;51.236;6.794;2022-07-22T17:08:42;5.05;;;4.55;;
17636;SDS011;8937;51.236;6.794;2022-07-22T17:17:05;5.53;;;4.70;;
17636;SDS011;8937;51.236;6.794;2022-07-22T17:25:31;5.53;;;5.03;;
17636;SDS011;8937;51.236;6.794;2022-07-22T17:33:54;6.05;;;5.45;;
17636;SDS011;8937;51.236;6.794;2022-07-22T17:42:16;5.32;;;4.88;;
17636;SDS011;8937;51.236;6.794;2022-07-22T17:50:39;5.43;;;4.78;;
17636;SDS011;8937;51.236;6.794;2022-07-22T17:59:01;6.07;;;5.43;;
17636;SDS011;8937;51.236;6.794;2022-07-22T18:07:24;6.00;;;5.40;;
17636;SDS011;8937;51.236;6.794;2022-07-22T18:15:46;7.60;;;6.13;;
17636;SDS011;8937;51.236;6.794;2022-07-22T18:24:09;8.68;;;6.53;;
17636;SDS011;8937;51.236;6.794;2022-07-22T18:32:31;9.05;;;6.38;;
17636;SDS011;8937;51.236;6.794;2022-07-22T18:40:54;6.88;;;6.00;;
17636;SDS011;8937;51.236;6.794;2022-07-22T18:49:16;6.78;;;5.45;;
17636;SDS011;8937;51.236;6.794;2022-07-22T18:57:39;5.57;;;5.07;;
17636;SDS011;8937;51.236;6.794;2022-07-22T19:06:00;6.05;;;5.30;;
17636;SDS011;8937;51.236;6.794;2022-07-22T19:14:23;4.80;;;4.40;;
17636;SDS011;8937;51.236;6.794;2022-07-22T19:22:45;6.63;;;5.93;;
17636;SDS011;8937;51.236;6.794;2022-07-22T19:31:09;4.72;;;3.50;;
17636;SDS011;8937;51.236;6.794;2022-07-22T19:39:31;3.10;;;2.90;;
17636;SDS011;8937;51.236;6.794;2022-07-22T19:47:54;3.03;;;2.83;;
17636;SDS011;8937;51.236;6.794;2022-07-22T19:56:15;2.47;;;2.28;;
17636;SDS011;8937;51.236;6.794;2022-07-22T20:04:38;5.03;;;4.53;;
17636;SDS011;8937;51.236;6.794;2022-07-22T20:13:00;3.53;;;3.22;;
17636;SDS011;8937;51.236;6.794;2022-07-22T20:21:22;2.97;;;2.75;;
17636;SDS011;8937;51.236;6.794;2022-07-22T20:29:44;2.92;;;2.65;;
17636;SDS011;8937;51.236;6.794;2022-07-22T20:38:07;4.03;;;2.90;;
17636;SDS011;8937;51.236;6.794;2022-07-22T20:46:28;4.28;;;3.13;;
17636;SDS011;8937;51.236;6.794;2022-07-22T20:54:51;3.20;;;2.90;;
17636;SDS011;8937;51.236;6.794;2022-07-22T21:03:13;7.03;;;6.25;;
17636;SDS011;8937;51.236;6.794;2022-07-22T21:11:36;4.20;;;3.75;;
17636;SDS011;8937;51.236;6.794;2022-07-22T21:20:00;3.92;;;3.63;;
17636;SDS011;8937;51.236;6.794;2022-07-22T21:28:23;4.75;;;3.33;;
17636;SDS011;8937;51.236;6.794;2022-07-22T21:36:45;3.47;;;3.28;;
17636;SDS011;8937;51.236;6.794;2022-07-22T21:45:08;5.05;;;3.30;;
17636;SDS011;8937;51.236;6.794;2022-07-22T21:53:29;3.80;;;3.08;;
17636;SDS011;8937;51.236;6.794;2022-07-22T22:01:52;5.53;;;3.25;;
17636;SDS011;8937;51.236;6.794;2022-07-22T22:10:14;3.67;;;2.65;;
17636;SDS011;8937;51.236;6.794;2022-07-22T22:18:37;2.47;;;2.28;;
17636;SDS011;8937;51.236;6.794;2022-07-22T22:26:58;2.65;;;2.20;;
17636;SDS011;8937;51.236;6.794;2022-07-22T22:35:21;2.88;;;2.42;;
17636;SDS011;8937;51.236;6.794;2022-07-22T22:43:42;2.45;;;2.20;;
17636;SDS011;8937;51.236;6.794;2022-07-22T22:52:05;2.35;;;2.20;;
17636;SDS011;8937;51.236;6.794;2022-07-22T23:00:27;3.30;;;2.00;;
17636;SDS011;8937;51.236;6.794;2022-07-22T23:08:50;2.23;;;2.13;;
17636;SDS011;8937;51.236;6.794;2022-07-22T23:17:11;2.17;;;2.00;;
17636;SDS011;8937;51.236;6.794;2022-07-22T23:25:34;2.40;;;2.10;;
17636;SDS011;8937;51.236;6.794;2022-07-22T23:33:55;2.97;;;2.77;;
17636;SDS011;8937;51.236;6.794;2022-07-22T23:42:19;3.87;;;3.57;;
17636;SDS011;8937;51.236;6.794;2022-07-22T23:50:40;4.70;;;4.20;;
17636;SDS011;8937;51.236;6.794;2022-07-22T23:59:03;5.30;;;4.30;;
